createdAt,value
2019-01-20T00:00:22.201Z,17.80
2019-01-20T00:00:57.094Z,18.15
2019-01-20T00:01:31.670Z,19.12
2019-01-20T00:02:06.579Z,17.85
2019-01-20T00:02:41.344Z,18.45
2019-01-20T00:03:16.163Z,18.73
2019-01-20T00:03:50.664Z,18.95
2019-01-20T00:04:25.176Z,18.25
2019-01-20T00:04:59.764Z,18.60
2019-01-20T00:05:34.378Z,19.55
2019-01-20T00:06:08.883Z,18.45
2019-01-20T00:06:43.389Z,16.60
2019-01-20T00:07:17.978Z,18.32
2019-01-20T00:07:52.500Z,17.90
2019-01-20T00:08:27.090Z,17.52
2019-01-20T00:09:01.598Z,19.20
2019-01-20T00:09:36.166Z,18.85
2019-01-20T00:10:12.499Z,18.12
2019-01-20T00:10:47.010Z,19.67
2019-01-20T00:11:21.663Z,17.82
2019-01-20T00:11:56.161Z,19.20
2019-01-20T00:12:31.195Z,21.90
2019-01-20T00:13:06.132Z,19.00
2019-01-20T00:13:40.853Z,19.50
2019-01-20T00:14:15.476Z,19.45
2019-01-20T00:14:49.979Z,19.77
2019-01-20T00:15:24.658Z,20.43
2019-01-20T00:15:59.186Z,19.90
2019-01-20T00:16:33.694Z,19.62
2019-01-20T00:17:08.211Z,20.65
2019-01-20T00:17:42.848Z,21.25
2019-01-20T00:18:17.363Z,20.27
2019-01-20T00:18:51.965Z,19.48
2019-01-20T00:19:26.473Z,19.15
2019-01-20T00:20:00.990Z,18.17
2019-01-20T00:20:35.564Z,17.62
2019-01-20T00:21:13.024Z,17.60
2019-01-20T00:21:47.531Z,18.32
2019-01-20T00:22:22.041Z,18.48
2019-01-20T00:22:58.218Z,18.90
2019-01-20T00:23:32.733Z,20.23
2019-01-20T00:24:07.258Z,20.08
2019-01-20T00:24:41.845Z,19.02
2019-01-20T00:25:35.685Z,19.75
2019-01-20T00:26:10.499Z,19.92
2019-01-20T00:26:45.891Z,19.32
2019-01-20T00:27:20.383Z,18.60
2019-01-20T00:27:55.018Z,16.90
2019-01-20T00:28:32.535Z,17.87
2019-01-20T00:29:07.259Z,17.10
2019-01-20T00:29:41.942Z,16.82
2019-01-20T00:30:18.187Z,17.57
2019-01-20T00:30:52.769Z,16.90
2019-01-20T00:31:27.391Z,18.12
2019-01-20T00:32:01.897Z,17.75
2019-01-20T00:32:36.485Z,18.37
2019-01-20T00:33:15.216Z,18.30
2019-01-20T00:33:49.801Z,18.02
2019-01-20T00:34:24.424Z,16.15
2019-01-20T00:34:58.958Z,18.20
2019-01-20T00:35:33.468Z,17.17
2019-01-20T00:36:07.971Z,17.62
2019-01-20T00:36:42.505Z,17.48
2019-01-20T00:37:17.076Z,18.62
2019-01-20T00:37:51.691Z,17.70
2019-01-20T00:38:33.777Z,17.57
2019-01-20T00:39:08.597Z,15.55
2019-01-20T00:39:43.252Z,18.62
2019-01-20T00:40:17.930Z,19.42
2019-01-20T00:40:52.568Z,16.42
2019-01-20T00:41:27.098Z,17.32
2019-01-20T00:42:01.701Z,16.90
2019-01-20T00:42:36.221Z,17.37
2019-01-20T00:43:10.755Z,18.02
2019-01-20T00:43:45.415Z,17.15
2019-01-20T00:44:19.991Z,16.57
2019-01-20T00:44:54.585Z,18.30
2019-01-20T00:45:29.112Z,17.87
2019-01-20T00:46:03.693Z,18.92
2019-01-20T00:46:38.283Z,18.45
2019-01-20T00:47:12.801Z,18.15
2019-01-20T00:47:47.412Z,16.30
2019-01-20T00:48:21.986Z,18.27
2019-01-20T00:48:56.506Z,17.15
2019-01-20T00:49:31.108Z,17.15
2019-01-20T00:50:08.619Z,18.07
2019-01-20T00:50:43.197Z,18.80
2019-01-20T00:51:17.726Z,18.87
2019-01-20T00:51:52.271Z,16.50
2019-01-20T00:52:26.827Z,17.57
2019-01-20T00:53:01.419Z,17.42
2019-01-20T00:53:36.009Z,16.40
2019-01-20T00:54:10.514Z,20.37
2019-01-20T00:54:45.022Z,18.07
2019-01-20T00:55:19.570Z,19.95
2019-01-20T00:55:54.451Z,16.45
2019-01-20T00:56:28.976Z,18.95
2019-01-20T00:57:03.559Z,17.62
2019-01-20T00:57:38.837Z,17.80
2019-01-20T00:58:13.509Z,18.65
2019-01-20T00:58:48.034Z,18.35
2019-01-20T00:59:22.600Z,17.75
2019-01-20T00:59:57.113Z,18.60
2019-01-20T01:00:32.637Z,18.23
2019-01-20T01:01:07.158Z,18.17
2019-01-20T01:01:41.771Z,16.40
2019-01-20T01:02:16.284Z,17.35
2019-01-20T01:02:50.867Z,18.25
2019-01-20T01:03:25.400Z,17.52
2019-01-20T01:03:59.910Z,16.10
2019-01-20T01:04:34.423Z,17.27
2019-01-20T01:05:09.438Z,18.30
2019-01-20T01:05:43.949Z,17.77
2019-01-20T01:06:19.396Z,19.65
2019-01-20T01:06:53.904Z,16.10
2019-01-20T01:07:28.503Z,17.07
2019-01-20T01:08:03.538Z,17.67
2019-01-20T01:08:38.070Z,17.70
2019-01-20T01:09:12.636Z,16.82
2019-01-20T01:09:50.106Z,16.67
2019-01-20T01:10:27.746Z,15.18
2019-01-20T01:11:02.332Z,16.23
2019-01-20T01:11:37.362Z,16.00
2019-01-20T01:12:13.897Z,15.80
2019-01-20T01:12:52.150Z,15.60
2019-01-20T01:13:26.738Z,18.32
2019-01-20T01:14:01.330Z,15.75
2019-01-20T01:14:35.833Z,16.07
2019-01-20T01:15:11.881Z,16.20
2019-01-20T01:15:46.399Z,16.42
2019-01-20T01:16:21.548Z,15.55
2019-01-20T01:16:56.379Z,15.40
2019-01-20T01:17:30.873Z,14.75
2019-01-20T01:18:05.536Z,16.82
2019-01-20T01:18:40.039Z,17.48
2019-01-20T01:19:14.551Z,16.37
2019-01-20T01:19:49.065Z,15.98
2019-01-20T01:20:24.004Z,16.62
2019-01-20T01:20:58.548Z,15.20
2019-01-20T01:21:33.121Z,16.10
2019-01-20T01:22:07.695Z,17.57
2019-01-20T01:22:42.535Z,18.17
2019-01-20T01:23:19.517Z,15.83
2019-01-20T01:23:53.314Z,15.90
2019-01-20T01:24:28.244Z,16.32
2019-01-20T01:25:02.762Z,16.93
2019-01-20T01:25:37.339Z,15.88
2019-01-20T01:26:11.840Z,17.77
2019-01-20T01:26:46.350Z,17.10
2019-01-20T01:27:20.858Z,16.90
2019-01-20T01:27:55.522Z,17.48
2019-01-20T01:28:30.518Z,15.38
2019-01-20T01:29:05.026Z,15.28
2019-01-20T01:29:39.541Z,17.02
2019-01-20T01:30:19.214Z,16.15
2019-01-20T01:30:54.083Z,15.32
2019-01-20T01:31:28.588Z,18.50
2019-01-20T01:32:03.141Z,15.28
2019-01-20T01:32:37.645Z,15.65
2019-01-20T01:33:12.174Z,15.85
2019-01-20T01:33:46.685Z,15.13
2019-01-20T01:34:21.191Z,16.37
2019-01-20T01:34:55.707Z,17.12
2019-01-20T01:35:30.224Z,15.30
2019-01-20T01:36:04.801Z,14.98
2019-01-20T01:36:39.312Z,15.70
2019-01-20T01:37:13.811Z,16.73
2019-01-20T01:37:48.381Z,15.83
2019-01-20T01:38:22.899Z,16.87
2019-01-20T01:38:57.405Z,15.30
2019-01-20T01:39:31.912Z,16.12
2019-01-20T01:40:09.330Z,16.37
2019-01-20T01:40:43.845Z,15.23
2019-01-20T01:41:18.376Z,14.80
2019-01-20T01:41:52.885Z,14.80
2019-01-20T01:42:27.388Z,16.10
2019-01-20T01:43:01.894Z,16.07
2019-01-20T01:43:36.497Z,16.97
2019-01-20T01:44:11.102Z,16.30
2019-01-20T01:44:45.689Z,16.87
2019-01-20T01:45:20.950Z,15.80
2019-01-20T01:45:55.470Z,16.32
2019-01-20T01:46:29.964Z,16.20
2019-01-20T01:47:04.543Z,15.85
2019-01-20T01:47:39.061Z,16.90
2019-01-20T01:48:13.560Z,17.10
2019-01-20T01:48:48.085Z,16.12
2019-01-20T01:49:22.719Z,15.18
2019-01-20T01:49:57.291Z,16.30
2019-01-20T01:50:32.090Z,16.30
2019-01-20T01:51:06.607Z,16.60
2019-01-20T01:51:41.193Z,16.05
2019-01-20T01:52:15.703Z,17.20
2019-01-20T01:52:50.216Z,16.55
2019-01-20T01:53:24.806Z,17.52
2019-01-20T01:53:59.312Z,14.28
2019-01-20T01:54:34.250Z,18.10
2019-01-20T01:55:10.008Z,16.57
2019-01-20T01:55:44.545Z,16.40
2019-01-20T01:56:19.174Z,14.50
2019-01-20T01:56:53.699Z,16.05
2019-01-20T01:57:29.484Z,16.95
2019-01-20T01:58:04.289Z,16.07
2019-01-20T01:58:38.820Z,15.60
2019-01-20T01:59:13.525Z,17.52
2019-01-20T01:59:48.348Z,15.45
2019-01-20T02:00:23.563Z,16.37
2019-01-20T02:00:58.074Z,14.33
2019-01-20T02:01:32.604Z,17.85
2019-01-20T02:02:07.501Z,16.15
2019-01-20T02:02:42.078Z,16.07
2019-01-20T02:03:16.721Z,16.07
2019-01-20T02:03:51.237Z,14.05
2019-01-20T02:04:25.744Z,16.67
2019-01-20T02:05:00.417Z,14.93
2019-01-20T02:05:34.946Z,14.93
2019-01-20T02:06:09.545Z,15.28
2019-01-20T02:06:44.128Z,14.75
2019-01-20T02:07:18.725Z,15.38
2019-01-20T02:07:53.744Z,15.43
2019-01-20T02:08:28.335Z,13.62
2019-01-20T02:09:03.409Z,14.05
2019-01-20T02:09:37.912Z,15.43
2019-01-20T02:10:19.937Z,15.25
2019-01-20T02:10:54.547Z,16.25
2019-01-20T02:11:29.050Z,15.13
2019-01-20T02:12:04.066Z,15.72
2019-01-20T02:12:38.581Z,15.40
2019-01-20T02:13:13.152Z,15.18
2019-01-20T02:13:48.743Z,16.32
2019-01-20T02:14:23.317Z,15.93
2019-01-20T02:14:57.824Z,16.10
2019-01-20T02:15:32.328Z,15.78
2019-01-20T02:16:06.839Z,14.25
2019-01-20T02:16:41.991Z,14.83
2019-01-20T02:17:16.922Z,15.13
2019-01-20T02:17:52.328Z,15.83
2019-01-20T02:18:26.840Z,14.80
2019-01-20T02:19:01.448Z,15.88
2019-01-20T02:19:36.217Z,16.55
2019-01-20T02:20:22.410Z,15.28
2019-01-20T02:20:56.911Z,16.52
2019-01-20T02:21:31.593Z,13.38
2019-01-20T02:22:06.165Z,14.40
2019-01-20T02:22:40.677Z,16.07
2019-01-20T02:23:15.195Z,14.58
2019-01-20T02:23:49.817Z,15.03
2019-01-20T02:24:24.680Z,15.28
2019-01-20T02:24:59.251Z,14.13
2019-01-20T02:25:33.781Z,16.27
2019-01-20T02:26:08.284Z,16.32
2019-01-20T02:26:42.857Z,15.28
2019-01-20T02:27:17.400Z,14.20
2019-01-20T02:27:53.800Z,15.68
2019-01-20T02:28:28.389Z,14.03
2019-01-20T02:29:03.040Z,14.58
2019-01-20T02:29:37.769Z,14.53
2019-01-20T02:30:24.155Z,16.45
2019-01-20T02:30:59.027Z,16.27
2019-01-20T02:31:33.769Z,14.98
2019-01-20T02:32:08.264Z,16.67
2019-01-20T02:32:42.881Z,15.65
2019-01-20T02:33:17.402Z,14.45
2019-01-20T02:33:51.929Z,15.20
2019-01-20T02:34:26.468Z,14.45
2019-01-20T02:35:00.977Z,15.40
2019-01-20T02:35:35.472Z,16.20
2019-01-20T02:36:10.049Z,15.03
2019-01-20T02:36:44.556Z,16.60
2019-01-20T02:37:19.066Z,15.40
2019-01-20T02:37:53.642Z,16.75
2019-01-20T02:38:28.215Z,16.55
2019-01-20T02:39:03.172Z,16.35
2019-01-20T02:39:37.711Z,14.75
2019-01-20T02:40:14.916Z,14.85
2019-01-20T02:40:49.444Z,15.00
2019-01-20T02:41:23.951Z,14.28
2019-01-20T02:41:58.476Z,15.85
2019-01-20T02:42:33.159Z,14.35
2019-01-20T02:43:07.740Z,15.70
2019-01-20T02:43:42.253Z,15.38
2019-01-20T02:44:16.768Z,16.15
2019-01-20T02:44:51.344Z,15.90
2019-01-20T02:45:25.856Z,15.83
2019-01-20T02:46:00.748Z,16.32
2019-01-20T02:46:35.258Z,15.65
2019-01-20T02:47:10.764Z,14.65
2019-01-20T02:47:45.295Z,14.20
2019-01-20T02:48:19.819Z,13.68
2019-01-20T02:48:55.028Z,15.30
2019-01-20T02:49:29.559Z,14.45
2019-01-20T02:50:06.205Z,16.32
2019-01-20T02:50:40.773Z,15.03
2019-01-20T02:51:15.290Z,15.78
2019-01-20T02:51:49.864Z,15.10
2019-01-20T02:52:24.453Z,16.27
2019-01-20T02:52:59.084Z,14.33
2019-01-20T02:53:33.652Z,16.40
2019-01-20T02:54:08.187Z,14.38
2019-01-20T02:54:42.770Z,15.03
2019-01-20T02:55:17.281Z,16.02
2019-01-20T02:55:51.794Z,15.30
2019-01-20T02:56:26.390Z,14.55
2019-01-20T02:57:00.949Z,14.03
2019-01-20T02:57:35.464Z,14.68
2019-01-20T02:58:10.005Z,15.05
2019-01-20T02:58:44.888Z,14.73
2019-01-20T02:59:19.574Z,16.77
2019-01-20T02:59:54.072Z,16.30
2019-01-20T03:00:29.012Z,14.75
2019-01-20T03:01:04.851Z,15.93
2019-01-20T03:01:39.717Z,15.35
2019-01-20T03:02:14.496Z,14.10
2019-01-20T03:02:49.185Z,15.45
2019-01-20T03:03:23.852Z,13.72
2019-01-20T03:03:58.398Z,15.80
2019-01-20T03:04:33.018Z,13.20
2019-01-20T03:05:10.326Z,15.58
2019-01-20T03:05:44.831Z,13.98
2019-01-20T03:06:19.370Z,14.45
2019-01-20T03:06:53.941Z,15.25
2019-01-20T03:07:28.970Z,15.78
2019-01-20T03:08:03.477Z,15.58
2019-01-20T03:08:38.070Z,16.32
2019-01-20T03:09:12.736Z,14.30
2019-01-20T03:09:47.351Z,14.83
2019-01-20T03:10:21.907Z,14.53
2019-01-20T03:10:56.439Z,15.53
2019-01-20T03:11:30.972Z,14.55
2019-01-20T03:12:05.477Z,14.45
2019-01-20T03:12:40.096Z,15.13
2019-01-20T03:13:14.626Z,14.43
2019-01-20T03:13:49.191Z,14.93
2019-01-20T03:14:23.726Z,15.05
2019-01-20T03:14:58.233Z,13.58
2019-01-20T03:15:32.773Z,14.15
2019-01-20T03:16:07.314Z,13.90
2019-01-20T03:16:41.817Z,15.10
2019-01-20T03:17:16.335Z,13.45
2019-01-20T03:17:50.920Z,14.53
2019-01-20T03:18:25.437Z,14.35
2019-01-20T03:19:00.009Z,15.40
2019-01-20T03:19:34.528Z,14.78
2019-01-20T03:20:14.809Z,14.93
2019-01-20T03:20:49.329Z,15.32
2019-01-20T03:21:23.829Z,14.65
2019-01-20T03:21:58.410Z,16.15
2019-01-20T03:22:33.857Z,14.15
2019-01-20T03:23:08.360Z,14.07
2019-01-20T03:23:42.941Z,14.10
2019-01-20T03:24:17.595Z,13.10
2019-01-20T03:24:52.438Z,14.30
2019-01-20T03:25:27.066Z,15.23
2019-01-20T03:26:01.575Z,14.60
2019-01-20T03:26:36.164Z,14.13
2019-01-20T03:27:10.679Z,14.38
2019-01-20T03:27:45.344Z,13.78
2019-01-20T03:28:19.859Z,14.33
2019-01-20T03:28:54.377Z,15.78
2019-01-20T03:29:28.892Z,14.47
2019-01-20T03:30:05.306Z,14.50
2019-01-20T03:30:39.926Z,15.63
2019-01-20T03:31:14.507Z,15.15
2019-01-20T03:31:49.010Z,16.07
2019-01-20T03:32:23.603Z,12.90
2019-01-20T03:32:58.219Z,15.50
2019-01-20T03:33:32.881Z,13.98
2019-01-20T03:34:07.408Z,14.23
2019-01-20T03:34:42.007Z,15.93
2019-01-20T03:35:19.259Z,14.35
2019-01-20T03:35:53.773Z,14.53
2019-01-20T03:36:28.290Z,13.25
2019-01-20T03:37:02.817Z,12.85
2019-01-20T03:37:37.325Z,14.58
2019-01-20T03:38:11.844Z,13.65
2019-01-20T03:38:46.805Z,13.75
2019-01-20T03:39:21.329Z,14.25
2019-01-20T03:39:55.907Z,12.58
2019-01-20T03:40:30.404Z,12.85
2019-01-20T03:41:05.097Z,14.45
2019-01-20T03:41:39.852Z,14.65
2019-01-20T03:42:14.358Z,12.35
2019-01-20T03:42:49.486Z,13.25
2019-01-20T03:43:24.065Z,13.22
2019-01-20T03:44:39.263Z,13.70
2019-01-20T03:45:15.984Z,14.35
2019-01-20T03:45:50.508Z,15.10
2019-01-20T03:46:25.246Z,13.85
2019-01-20T03:47:01.025Z,13.40
2019-01-20T03:47:35.524Z,13.70
2019-01-20T03:48:10.028Z,14.45
2019-01-20T03:48:44.540Z,13.95
2019-01-20T03:49:19.142Z,13.70
2019-01-20T03:49:53.713Z,13.18
2019-01-20T03:50:28.218Z,12.90
2019-01-20T03:51:02.740Z,14.75
2019-01-20T03:52:32.580Z,12.93
2019-01-20T03:53:07.190Z,13.43
2019-01-20T03:53:41.693Z,13.20
2019-01-20T03:54:16.218Z,13.40
2019-01-20T03:54:50.754Z,13.53
2019-01-20T03:55:25.322Z,14.03
2019-01-20T03:55:59.847Z,13.25
2019-01-20T03:56:34.671Z,12.28
2019-01-20T03:57:09.244Z,14.33
2019-01-20T03:57:43.748Z,12.33
2019-01-20T03:58:18.327Z,13.78
2019-01-20T03:58:52.897Z,15.38
2019-01-20T03:59:28.103Z,12.90
2019-01-20T04:00:02.677Z,13.68
2019-01-20T04:00:37.262Z,13.00
2019-01-20T04:01:12.181Z,14.33
2019-01-20T04:01:46.815Z,11.50
2019-01-20T04:02:22.327Z,11.83
2019-01-20T04:02:58.477Z,13.38
2019-01-20T04:03:33.193Z,13.98
2019-01-20T04:04:07.734Z,14.05
2019-01-20T04:04:42.257Z,14.83
2019-01-20T04:05:16.901Z,12.90
2019-01-20T04:05:51.403Z,12.73
2019-01-20T04:06:25.925Z,14.25
2019-01-20T04:07:00.486Z,12.85
2019-01-20T04:07:35.060Z,13.58
2019-01-20T04:08:09.572Z,14.98
2019-01-20T04:08:44.187Z,14.40
2019-01-20T04:09:18.801Z,13.68
2019-01-20T04:09:53.432Z,14.98
2019-01-20T04:10:28.035Z,14.45
2019-01-20T04:11:02.934Z,12.82
2019-01-20T04:11:37.450Z,12.85
2019-01-20T04:12:20.284Z,14.53
2019-01-20T04:12:48.152Z,13.98
2019-01-20T04:13:22.692Z,13.85
2019-01-20T04:13:57.206Z,12.23
2019-01-20T04:14:32.946Z,14.58
2019-01-20T04:15:08.815Z,12.53
2019-01-20T04:15:43.387Z,12.85
2019-01-20T04:16:18.179Z,13.62
2019-01-20T04:16:52.684Z,13.80
2019-01-20T04:17:27.520Z,13.40
2019-01-20T04:18:02.036Z,14.03
2019-01-20T04:18:36.593Z,13.03
2019-01-20T04:19:11.111Z,12.70
2019-01-20T04:19:45.627Z,14.18
2019-01-20T04:20:20.273Z,12.70
2019-01-20T04:20:54.781Z,14.30
2019-01-20T04:21:29.352Z,13.53
2019-01-20T04:22:03.933Z,12.80
2019-01-20T04:22:38.505Z,14.15
2019-01-20T04:23:13.726Z,12.70
2019-01-20T04:23:50.065Z,13.18
2019-01-20T04:24:24.433Z,13.15
2019-01-20T04:24:58.947Z,13.68
2019-01-20T04:25:33.452Z,13.85
2019-01-20T04:26:07.951Z,12.90
2019-01-20T04:26:43.455Z,13.15
2019-01-20T04:27:18.031Z,11.88
2019-01-20T04:27:52.612Z,14.50
2019-01-20T04:28:27.228Z,14.65
2019-01-20T04:29:01.741Z,13.93
2019-01-20T04:29:36.395Z,13.48
2019-01-20T04:30:13.436Z,13.03
2019-01-20T04:30:48.030Z,12.95
2019-01-20T04:31:22.633Z,13.90
2019-01-20T04:31:57.168Z,12.60
2019-01-20T04:32:32.075Z,11.65
2019-01-20T04:33:06.653Z,12.40
2019-01-20T04:33:41.267Z,12.75
2019-01-20T04:34:15.774Z,14.00
2019-01-20T04:34:50.284Z,14.83
2019-01-20T04:35:24.831Z,12.33
2019-01-20T04:35:59.383Z,13.15
2019-01-20T04:36:33.887Z,13.05
2019-01-20T04:37:08.396Z,11.85
2019-01-20T04:37:43.243Z,12.37
2019-01-20T04:38:18.621Z,12.50
2019-01-20T04:38:53.120Z,13.25
2019-01-20T04:39:27.628Z,11.70
2019-01-20T04:40:04.973Z,12.68
2019-01-20T04:40:39.508Z,13.03
2019-01-20T04:41:14.005Z,13.78
2019-01-20T04:41:48.578Z,12.70
2019-01-20T04:42:28.979Z,12.50
2019-01-20T04:42:59.288Z,13.35
2019-01-20T04:43:33.796Z,13.35
2019-01-20T04:44:08.310Z,13.93
2019-01-20T04:44:42.899Z,12.05
2019-01-20T04:45:17.480Z,12.03
2019-01-20T04:45:52.050Z,11.85
2019-01-20T04:46:26.558Z,13.38
2019-01-20T04:47:01.121Z,11.73
2019-01-20T04:47:35.939Z,13.95
2019-01-20T04:48:10.450Z,12.33
2019-01-20T04:48:45.249Z,14.07
2019-01-20T04:49:19.757Z,12.10
2019-01-20T04:49:54.606Z,11.48
2019-01-20T04:50:29.116Z,13.03
2019-01-20T04:51:03.633Z,12.15
2019-01-20T04:51:38.148Z,12.50
2019-01-20T04:52:12.728Z,13.35
2019-01-20T04:52:47.252Z,12.53
2019-01-20T04:53:21.878Z,13.38
2019-01-20T04:53:56.465Z,13.40
2019-01-20T04:54:30.967Z,12.30
2019-01-20T04:55:08.796Z,12.43
2019-01-20T04:55:43.551Z,12.43
2019-01-20T04:56:19.792Z,12.33
2019-01-20T04:56:54.297Z,13.38
2019-01-20T04:57:28.994Z,13.75
2019-01-20T04:58:03.739Z,11.75
2019-01-20T04:58:38.243Z,13.55
2019-01-20T04:59:12.755Z,12.20
2019-01-20T04:59:47.335Z,12.93
2019-01-20T05:00:23.995Z,12.58
2019-01-20T05:00:58.568Z,13.25
2019-01-20T05:01:33.095Z,12.00
2019-01-20T05:02:07.628Z,12.18
2019-01-20T05:02:42.131Z,13.25
2019-01-20T05:03:16.653Z,12.10
2019-01-20T05:03:51.257Z,11.88
2019-01-20T05:04:25.758Z,13.98
2019-01-20T05:05:00.373Z,12.40
2019-01-20T05:05:34.969Z,12.25
2019-01-20T05:06:09.486Z,11.78
2019-01-20T05:06:44.003Z,12.80
2019-01-20T05:07:20.141Z,12.13
2019-01-20T05:07:54.678Z,13.48
2019-01-20T05:08:29.355Z,12.73
2019-01-20T05:09:06.081Z,12.58
2019-01-20T05:09:40.595Z,13.25
2019-01-20T05:10:19.070Z,12.20
2019-01-20T05:10:53.581Z,13.32
2019-01-20T05:11:28.082Z,12.63
2019-01-20T05:12:02.596Z,12.35
2019-01-20T05:12:37.852Z,12.37
2019-01-20T05:13:12.688Z,12.85
2019-01-20T05:13:47.213Z,11.40
2019-01-20T05:14:22.162Z,13.35
2019-01-20T05:14:56.678Z,12.78
2019-01-20T05:15:31.221Z,12.45
2019-01-20T05:16:05.837Z,12.37
2019-01-20T05:16:40.416Z,11.48
2019-01-20T05:17:14.917Z,11.90
2019-01-20T05:17:49.508Z,13.32
2019-01-20T05:18:24.012Z,11.35
2019-01-20T05:18:58.607Z,12.45
2019-01-20T05:19:33.308Z,13.90
2019-01-20T05:20:09.737Z,10.48
2019-01-20T05:20:44.313Z,11.68
2019-01-20T05:21:18.810Z,11.53
2019-01-20T05:21:53.318Z,12.63
2019-01-20T05:22:27.843Z,11.33
2019-01-20T05:23:04.343Z,12.85
2019-01-20T05:23:38.832Z,13.30
2019-01-20T05:24:13.428Z,11.93
2019-01-20T05:24:48.008Z,12.90
2019-01-20T05:25:23.066Z,11.63
2019-01-20T05:25:57.599Z,12.03
2019-01-20T05:26:32.161Z,13.08
2019-01-20T05:27:06.677Z,12.90
2019-01-20T05:27:41.382Z,12.50
2019-01-20T05:28:15.903Z,11.73
2019-01-20T05:28:50.476Z,11.68
2019-01-20T05:29:25.775Z,11.57
2019-01-20T05:30:00.427Z,12.70
2019-01-20T05:30:35.145Z,11.73
2019-01-20T05:31:09.652Z,13.55
2019-01-20T05:31:44.159Z,11.12
2019-01-20T05:32:18.675Z,10.60
2019-01-20T05:32:53.264Z,12.55
2019-01-20T05:33:27.770Z,12.93
2019-01-20T05:34:02.279Z,12.18
2019-01-20T05:34:36.788Z,12.98
2019-01-20T05:35:12.043Z,10.72
2019-01-20T05:35:46.554Z,13.22
2019-01-20T05:36:21.165Z,12.80
2019-01-20T05:36:55.670Z,13.08
2019-01-20T05:37:30.188Z,12.00
2019-01-20T05:38:04.702Z,11.93
2019-01-20T05:38:39.276Z,12.45
2019-01-20T05:39:13.783Z,11.90
2019-01-20T05:39:48.321Z,12.63
2019-01-20T05:40:23.249Z,11.38
2019-01-20T05:40:58.119Z,11.75
2019-01-20T05:41:32.807Z,12.20
2019-01-20T05:42:07.339Z,12.33
2019-01-20T05:42:46.372Z,12.28
2019-01-20T05:43:18.054Z,11.93
2019-01-20T05:43:52.556Z,11.03
2019-01-20T05:44:27.094Z,12.07
2019-01-20T05:45:01.593Z,12.47
2019-01-20T05:45:36.291Z,11.97
2019-01-20T05:46:10.955Z,12.90
2019-01-20T05:46:45.450Z,12.33
2019-01-20T05:47:19.967Z,10.95
2019-01-20T05:47:54.541Z,12.65
2019-01-20T05:48:29.065Z,11.78
2019-01-20T05:49:03.713Z,12.35
2019-01-20T05:49:38.216Z,12.18
2019-01-20T05:50:14.078Z,12.20
2019-01-20T05:50:48.589Z,11.55
2019-01-20T05:51:23.167Z,11.57
2019-01-20T05:51:57.685Z,12.00
2019-01-20T05:52:32.496Z,12.25
2019-01-20T05:53:09.782Z,12.63
2019-01-20T05:53:44.769Z,12.30
2019-01-20T05:54:19.640Z,12.13
2019-01-20T05:54:54.233Z,12.05
2019-01-20T05:55:28.793Z,12.47
2019-01-20T05:56:03.450Z,12.15
2019-01-20T05:56:38.570Z,12.98
2019-01-20T05:57:13.142Z,12.13
2019-01-20T05:57:47.654Z,12.50
2019-01-20T05:58:23.716Z,12.25
2019-01-20T05:58:58.307Z,11.90
2019-01-20T05:59:32.813Z,12.07
2019-01-20T06:00:10.491Z,12.10
2019-01-20T06:00:45.008Z,12.45
2019-01-20T06:01:19.577Z,11.70
2019-01-20T06:01:54.200Z,11.93
2019-01-20T06:02:28.957Z,11.03
2019-01-20T06:03:03.778Z,12.85
2019-01-20T06:03:39.260Z,11.57
2019-01-20T06:04:14.283Z,11.83
2019-01-20T06:04:48.859Z,11.68
2019-01-20T06:05:23.797Z,11.30
2019-01-20T06:05:58.387Z,11.18
2019-01-20T06:06:33.198Z,11.60
2019-01-20T06:07:07.878Z,10.98
2019-01-20T06:07:42.468Z,11.57
2019-01-20T06:08:17.045Z,11.90
2019-01-20T06:08:51.573Z,12.45
2019-01-20T06:09:26.469Z,11.35
2019-01-20T06:10:01.069Z,11.45
2019-01-20T06:10:35.652Z,11.15
2019-01-20T06:11:10.166Z,11.22
2019-01-20T06:11:44.756Z,11.70
2019-01-20T06:12:19.264Z,10.95
2019-01-20T06:12:54.569Z,10.45
2019-01-20T06:13:29.172Z,10.58
2019-01-20T06:14:03.735Z,12.23
2019-01-20T06:14:38.244Z,11.28
2019-01-20T06:15:20.751Z,12.75
2019-01-20T06:15:55.260Z,12.28
2019-01-20T06:16:30.173Z,11.60
2019-01-20T06:17:04.681Z,11.28
2019-01-20T06:17:39.390Z,12.33
2019-01-20T06:18:14.006Z,11.33
2019-01-20T06:18:48.576Z,11.20
2019-01-20T06:19:23.681Z,10.82
2019-01-20T06:19:58.714Z,10.75
2019-01-20T06:20:33.240Z,11.20
2019-01-20T06:21:07.759Z,12.88
2019-01-20T06:21:42.256Z,11.80
2019-01-20T06:22:16.767Z,12.23
2019-01-20T06:22:51.394Z,11.57
2019-01-20T06:23:25.961Z,11.50
2019-01-20T06:24:00.464Z,10.68
2019-01-20T06:24:34.974Z,11.05
2019-01-20T06:25:10.865Z,10.85
2019-01-20T06:25:45.478Z,11.18
2019-01-20T06:26:20.128Z,11.38
2019-01-20T06:26:54.634Z,11.08
2019-01-20T06:27:29.175Z,10.88
2019-01-20T06:28:03.751Z,11.48
2019-01-20T06:28:39.548Z,11.18
2019-01-20T06:29:14.164Z,10.78
2019-01-20T06:29:48.661Z,11.73
2019-01-20T06:30:25.985Z,10.90
2019-01-20T06:31:00.485Z,9.95
2019-01-20T06:31:34.985Z,10.55
2019-01-20T06:32:09.517Z,11.28
2019-01-20T06:32:44.098Z,10.63
2019-01-20T06:33:18.614Z,10.75
2019-01-20T06:33:53.204Z,10.40
2019-01-20T06:34:27.778Z,11.10
2019-01-20T06:35:02.289Z,11.57
2019-01-20T06:35:36.785Z,10.68
2019-01-20T06:36:11.314Z,10.63
2019-01-20T06:36:45.878Z,9.90
2019-01-20T06:37:20.391Z,11.20
2019-01-20T06:37:54.930Z,10.55
2019-01-20T06:38:29.432Z,8.70
2019-01-20T06:39:06.190Z,10.98
2019-01-20T06:39:40.763Z,10.45
2019-01-20T06:40:15.536Z,10.40
2019-01-20T06:40:50.059Z,10.93
2019-01-20T06:41:24.560Z,11.60
2019-01-20T06:41:59.076Z,11.85
2019-01-20T06:42:33.607Z,10.38
2019-01-20T06:43:08.177Z,10.15
2019-01-20T06:43:42.699Z,10.30
2019-01-20T06:44:17.217Z,9.95
2019-01-20T06:44:51.782Z,10.10
2019-01-20T06:45:26.319Z,10.08
2019-01-20T06:46:00.874Z,9.95
2019-01-20T06:46:35.385Z,10.63
2019-01-20T06:47:09.898Z,10.18
2019-01-20T06:47:44.471Z,9.80
2019-01-20T06:48:18.977Z,10.45
2019-01-20T06:48:53.600Z,10.50
2019-01-20T06:49:28.121Z,11.05
2019-01-20T06:50:02.672Z,9.75
2019-01-20T06:50:37.267Z,9.95
2019-01-20T06:51:11.875Z,9.83
2019-01-20T06:51:46.441Z,10.82
2019-01-20T06:52:22.618Z,10.32
2019-01-20T06:52:57.116Z,10.30
2019-01-20T06:53:31.652Z,10.00
2019-01-20T06:54:06.260Z,10.40
2019-01-20T06:54:40.767Z,10.48
2019-01-20T06:55:15.381Z,11.57
2019-01-20T06:55:49.968Z,11.28
2019-01-20T06:56:24.589Z,9.55
2019-01-20T06:56:59.368Z,10.88
2019-01-20T06:57:33.875Z,10.20
2019-01-20T06:58:08.437Z,10.48
2019-01-20T06:58:43.024Z,9.98
2019-01-20T06:59:17.530Z,9.80
2019-01-20T06:59:52.044Z,10.55
2019-01-20T07:00:26.551Z,9.73
2019-01-20T07:01:01.095Z,11.20
2019-01-20T07:01:35.678Z,10.05
2019-01-20T07:02:10.181Z,9.68
2019-01-20T07:02:44.688Z,10.00
2019-01-20T07:03:19.206Z,11.10
2019-01-20T07:03:53.703Z,10.03
2019-01-20T07:04:28.217Z,10.32
2019-01-20T07:05:02.890Z,10.93
2019-01-20T07:05:37.415Z,10.08
2019-01-20T07:06:11.927Z,9.43
2019-01-20T07:06:46.456Z,11.03
2019-01-20T07:07:22.391Z,10.80
2019-01-20T07:07:56.929Z,10.78
2019-01-20T07:08:32.602Z,10.20
2019-01-20T07:09:07.976Z,10.68
2019-01-20T07:09:42.776Z,9.85
2019-01-20T07:10:18.937Z,11.15
2019-01-20T07:10:53.468Z,10.40
2019-01-20T07:11:28.088Z,10.75
2019-01-20T07:12:02.685Z,11.30
2019-01-20T07:12:37.263Z,10.00
2019-01-20T07:13:11.781Z,11.18
2019-01-20T07:13:46.276Z,9.85
2019-01-20T07:14:20.787Z,9.95
2019-01-20T07:14:55.293Z,10.43
2019-01-20T07:15:30.219Z,10.48
2019-01-20T07:16:05.258Z,10.80
2019-01-20T07:16:39.863Z,10.40
2019-01-20T07:17:14.358Z,10.58
2019-01-20T07:17:49.017Z,10.60
2019-01-20T07:18:23.631Z,11.05
2019-01-20T07:18:58.225Z,10.25
2019-01-20T07:19:32.789Z,10.48
2019-01-20T07:20:10.264Z,10.70
2019-01-20T07:20:45.239Z,10.08
2019-01-20T07:21:19.824Z,10.95
2019-01-20T07:21:54.324Z,11.93
2019-01-20T07:22:28.869Z,9.48
2019-01-20T07:23:03.450Z,11.00
2019-01-20T07:23:37.954Z,9.50
2019-01-20T07:24:12.472Z,10.32
2019-01-20T07:24:46.971Z,9.60
2019-01-20T07:25:21.482Z,10.30
2019-01-20T07:25:55.990Z,9.83
2019-01-20T07:26:30.566Z,10.72
2019-01-20T07:27:05.182Z,8.98
2019-01-20T07:27:39.767Z,10.35
2019-01-20T07:28:14.274Z,10.48
2019-01-20T07:28:48.779Z,11.22
2019-01-20T07:29:24.703Z,9.85
2019-01-20T07:29:59.449Z,9.60
2019-01-20T07:30:33.967Z,10.05
2019-01-20T07:31:08.472Z,10.53